sensor_id;sensor_type;location;lat;lon;timestamp;P1;durP1;ratioP1;P2;durP2;ratioP2
39486;SDS011;25173;50.430;18.926;2022-12-18T00:03:00;430.00;;;133.15;;
39486;SDS011;25173;50.430;18.926;2022-12-18T00:06:01;719.60;;;343.52;;
39486;SDS011;25173;50.430;18.926;2022-12-18T00:09:02;768.17;;;268.85;;
39486;SDS011;25173;50.430;18.926;2022-12-18T00:12:04;247.45;;;71.55;;
39486;SDS011;25173;50.430;18.926;2022-12-18T00:15:05;85.93;;;38.63;;
39486;SDS011;25173;50.430;18.926;2022-12-18T00:18:06;113.78;;;44.50;;
39486;SDS011;25173;50.430;18.926;2022-12-18T00:21:07;95.32;;;36.38;;
39486;SDS011;25173;50.430;18.926;2022-12-18T00:24:10;106.35;;;39.65;;
39486;SDS011;25173;50.430;18.926;2022-12-18T00:27:11;109.45;;;44.80;;
39486;SDS011;25173;50.430;18.926;2022-12-18T00:30:12;76.70;;;33.00;;
39486;SDS011;25173;50.430;18.926;2022-12-18T00:33:13;255.02;;;71.57;;
39486;SDS011;25173;50.430;18.926;2022-12-18T00:36:14;87.43;;;35.85;;
39486;SDS011;25173;50.430;18.926;2022-12-18T00:39:20;185.57;;;55.75;;
39486;SDS011;25173;50.430;18.926;2022-12-18T00:42:21;135.45;;;43.97;;
39486;SDS011;25173;50.430;18.926;2022-12-18T00:45:40;79.15;;;35.50;;
39486;SDS011;25173;50.430;18.926;2022-12-18T00:48:41;110.97;;;45.65;;
39486;SDS011;25173;50.430;18.926;2022-12-18T00:51:42;910.33;;;520.20;;
39486;SDS011;25173;50.430;18.926;2022-12-18T00:54:43;142.77;;;55.22;;
39486;SDS011;25173;50.430;18.926;2022-12-18T00:57:43;67.30;;;33.53;;
39486;SDS011;25173;50.430;18.926;2022-12-18T01:00:45;95.72;;;38.15;;
39486;SDS011;25173;50.430;18.926;2022-12-18T01:03:46;119.35;;;45.22;;
39486;SDS011;25173;50.430;18.926;2022-12-18T01:06:47;134.07;;;47.05;;
39486;SDS011;25173;50.430;18.926;2022-12-18T01:09:48;88.65;;;36.80;;
39486;SDS011;25173;50.430;18.926;2022-12-18T01:12:49;73.20;;;34.67;;
39486;SDS011;25173;50.430;18.926;2022-12-18T01:15:51;210.02;;;95.93;;
39486;SDS011;25173;50.430;18.926;2022-12-18T01:18:53;95.50;;;38.53;;
39486;SDS011;25173;50.430;18.926;2022-12-18T01:21:54;134.85;;;49.90;;
39486;SDS011;25173;50.430;18.926;2022-12-18T01:24:56;84.50;;;36.35;;
39486;SDS011;25173;50.430;18.926;2022-12-18T01:27:56;71.05;;;32.03;;
39486;SDS011;25173;50.430;18.926;2022-12-18T01:31:09;103.32;;;46.75;;
39486;SDS011;25173;50.430;18.926;2022-12-18T01:34:17;70.25;;;35.40;;
39486;SDS011;25173;50.430;18.926;2022-12-18T01:37:18;168.05;;;64.18;;
39486;SDS011;25173;50.430;18.926;2022-12-18T01:40:18;60.92;;;32.40;;
39486;SDS011;25173;50.430;18.926;2022-12-18T01:43:19;77.93;;;35.42;;
39486;SDS011;25173;50.430;18.926;2022-12-18T01:46:20;66.20;;;31.08;;
39486;SDS011;25173;50.430;18.926;2022-12-18T01:49:26;65.78;;;34.05;;
39486;SDS011;25173;50.430;18.926;2022-12-18T01:52:28;60.65;;;29.67;;
39486;SDS011;25173;50.430;18.926;2022-12-18T01:55:35;57.72;;;27.00;;
39486;SDS011;25173;50.430;18.926;2022-12-18T02:01:46;52.83;;;27.70;;
39486;SDS011;25173;50.430;18.926;2022-12-18T02:04:48;66.68;;;30.05;;
39486;SDS011;25173;50.430;18.926;2022-12-18T02:14:13;63.67;;;30.08;;
39486;SDS011;25173;50.430;18.926;2022-12-18T02:17:21;62.33;;;31.02;;
39486;SDS011;25173;50.430;18.926;2022-12-18T02:20:34;57.63;;;29.05;;
39486;SDS011;25173;50.430;18.926;2022-12-18T02:24:05;66.47;;;32.60;;
39486;SDS011;25173;50.430;18.926;2022-12-18T02:27:07;93.55;;;60.40;;
39486;SDS011;25173;50.430;18.926;2022-12-18T02:30:10;92.45;;;40.13;;
39486;SDS011;25173;50.430;18.926;2022-12-18T02:33:12;76.65;;;34.85;;
39486;SDS011;25173;50.430;18.926;2022-12-18T02:36:17;64.05;;;32.05;;
39486;SDS011;25173;50.430;18.926;2022-12-18T02:39:22;55.63;;;27.17;;
39486;SDS011;25173;50.430;18.926;2022-12-18T02:42:33;57.83;;;26.58;;
39486;SDS011;25173;50.430;18.926;2022-12-18T02:45:35;61.35;;;30.80;;
39486;SDS011;25173;50.430;18.926;2022-12-18T02:48:36;58.30;;;29.77;;
39486;SDS011;25173;50.430;18.926;2022-12-18T02:52:01;56.10;;;29.70;;
39486;SDS011;25173;50.430;18.926;2022-12-18T03:02:21;63.83;;;31.38;;
39486;SDS011;25173;50.430;18.926;2022-12-18T03:05:32;73.07;;;32.88;;
39486;SDS011;25173;50.430;18.926;2022-12-18T03:08:39;62.25;;;32.25;;
39486;SDS011;25173;50.430;18.926;2022-12-18T03:18:16;68.75;;;36.92;;
39486;SDS011;25173;50.430;18.926;2022-12-18T03:21:19;69.78;;;33.45;;
39486;SDS011;25173;50.430;18.926;2022-12-18T03:24:26;66.95;;;36.78;;
39486;SDS011;25173;50.430;18.926;2022-12-18T03:27:30;50.25;;;26.42;;
39486;SDS011;25173;50.430;18.926;2022-12-18T03:30:37;54.47;;;28.55;;
39486;SDS011;25173;50.430;18.926;2022-12-18T03:36:49;47.20;;;24.25;;
39486;SDS011;25173;50.430;18.926;2022-12-18T03:39:49;47.30;;;24.73;;
39486;SDS011;25173;50.430;18.926;2022-12-18T03:42:51;47.55;;;24.73;;
39486;SDS011;25173;50.430;18.926;2022-12-18T03:46:05;50.10;;;26.27;;
39486;SDS011;25173;50.430;18.926;2022-12-18T03:49:27;49.22;;;26.25;;
39486;SDS011;25173;50.430;18.926;2022-12-18T03:52:46;48.22;;;24.63;;
39486;SDS011;25173;50.430;18.926;2022-12-18T03:55:53;49.20;;;25.95;;
39486;SDS011;25173;50.430;18.926;2022-12-18T03:58:56;54.60;;;27.88;;
39486;SDS011;25173;50.430;18.926;2022-12-18T04:02:01;50.65;;;26.55;;
39486;SDS011;25173;50.430;18.926;2022-12-18T04:05:05;52.75;;;28.33;;
39486;SDS011;25173;50.430;18.926;2022-12-18T04:08:13;51.72;;;25.98;;
39486;SDS011;25173;50.430;18.926;2022-12-18T04:11:18;54.83;;;28.33;;
39486;SDS011;25173;50.430;18.926;2022-12-18T04:14:21;48.85;;;25.55;;
39486;SDS011;25173;50.430;18.926;2022-12-18T04:17:27;52.50;;;26.17;;
39486;SDS011;25173;50.430;18.926;2022-12-18T04:20:27;51.05;;;26.35;;
39486;SDS011;25173;50.430;18.926;2022-12-18T04:23:28;49.92;;;25.70;;
39486;SDS011;25173;50.430;18.926;2022-12-18T04:26:32;58.00;;;28.27;;
39486;SDS011;25173;50.430;18.926;2022-12-18T04:29:43;49.85;;;25.98;;
39486;SDS011;25173;50.430;18.926;2022-12-18T04:32:44;47.45;;;23.58;;
39486;SDS011;25173;50.430;18.926;2022-12-18T04:35:45;44.47;;;22.88;;
39486;SDS011;25173;50.430;18.926;2022-12-18T04:38:47;53.70;;;26.73;;
39486;SDS011;25173;50.430;18.926;2022-12-18T04:41:50;52.85;;;24.60;;
39486;SDS011;25173;50.430;18.926;2022-12-18T04:44:51;44.17;;;24.17;;
39486;SDS011;25173;50.430;18.926;2022-12-18T04:47:52;57.75;;;26.92;;
39486;SDS011;25173;50.430;18.926;2022-12-18T04:50:52;49.90;;;26.45;;
39486;SDS011;25173;50.430;18.926;2022-12-18T04:53:53;48.05;;;24.40;;
39486;SDS011;25173;50.430;18.926;2022-12-18T04:56:54;53.22;;;25.25;;
39486;SDS011;25173;50.430;18.926;2022-12-18T04:59:54;46.92;;;24.75;;
39486;SDS011;25173;50.430;18.926;2022-12-18T05:02:55;50.47;;;26.55;;
39486;SDS011;25173;50.430;18.926;2022-12-18T05:05:56;49.65;;;25.33;;
39486;SDS011;25173;50.430;18.926;2022-12-18T05:08:56;46.55;;;24.25;;
39486;SDS011;25173;50.430;18.926;2022-12-18T05:11:57;45.63;;;23.70;;
39486;SDS011;25173;50.430;18.926;2022-12-18T05:14:58;46.60;;;23.00;;
39486;SDS011;25173;50.430;18.926;2022-12-18T05:17:58;41.45;;;23.40;;
39486;SDS011;25173;50.430;18.926;2022-12-18T05:20:59;46.22;;;22.38;;
39486;SDS011;25173;50.430;18.926;2022-12-18T05:24:00;44.63;;;23.50;;
39486;SDS011;25173;50.430;18.926;2022-12-18T05:27:01;45.47;;;23.55;;
39486;SDS011;25173;50.430;18.926;2022-12-18T05:30:02;53.88;;;28.15;;
39486;SDS011;25173;50.430;18.926;2022-12-18T05:33:03;52.15;;;27.02;;
39486;SDS011;25173;50.430;18.926;2022-12-18T05:36:05;56.67;;;28.27;;
39486;SDS011;25173;50.430;18.926;2022-12-18T05:39:07;50.03;;;27.05;;
39486;SDS011;25173;50.430;18.926;2022-12-18T05:42:08;58.17;;;27.55;;
39486;SDS011;25173;50.430;18.926;2022-12-18T05:45:09;76.70;;;35.00;;
39486;SDS011;25173;50.430;18.926;2022-12-18T05:48:09;57.72;;;27.83;;
39486;SDS011;25173;50.430;18.926;2022-12-18T05:51:11;92.70;;;48.10;;
39486;SDS011;25173;50.430;18.926;2022-12-18T05:57:17;71.55;;;36.40;;
39486;SDS011;25173;50.430;18.926;2022-12-18T06:00:18;55.65;;;30.42;;
39486;SDS011;25173;50.430;18.926;2022-12-18T06:03:18;58.17;;;31.80;;
39486;SDS011;25173;50.430;18.926;2022-12-18T06:06:20;55.70;;;30.67;;
39486;SDS011;25173;50.430;18.926;2022-12-18T06:09:23;56.05;;;31.30;;
39486;SDS011;25173;50.430;18.926;2022-12-18T06:12:23;61.35;;;33.15;;
39486;SDS011;25173;50.430;18.926;2022-12-18T06:15:24;397.10;;;231.88;;
39486;SDS011;25173;50.430;18.926;2022-12-18T06:18:25;88.15;;;45.63;;
39486;SDS011;25173;50.430;18.926;2022-12-18T06:21:26;74.35;;;38.05;;
39486;SDS011;25173;50.430;18.926;2022-12-18T06:24:27;69.20;;;37.08;;
39486;SDS011;25173;50.430;18.926;2022-12-18T06:27:28;227.38;;;73.05;;
39486;SDS011;25173;50.430;18.926;2022-12-18T06:30:29;71.50;;;38.35;;
39486;SDS011;25173;50.430;18.926;2022-12-18T06:33:30;128.18;;;57.97;;
39486;SDS011;25173;50.430;18.926;2022-12-18T06:36:31;232.07;;;110.25;;
39486;SDS011;25173;50.430;18.926;2022-12-18T06:39:32;236.93;;;91.25;;
39486;SDS011;25173;50.430;18.926;2022-12-18T06:42:32;103.22;;;45.03;;
39486;SDS011;25173;50.430;18.926;2022-12-18T06:45:33;172.68;;;53.50;;
39486;SDS011;25173;50.430;18.926;2022-12-18T06:48:34;171.15;;;66.43;;
39486;SDS011;25173;50.430;18.926;2022-12-18T06:51:35;202.30;;;103.72;;
39486;SDS011;25173;50.430;18.926;2022-12-18T06:54:36;141.13;;;50.20;;
39486;SDS011;25173;50.430;18.926;2022-12-18T06:57:37;57.72;;;28.48;;
39486;SDS011;25173;50.430;18.926;2022-12-18T07:00:37;55.85;;;29.33;;
39486;SDS011;25173;50.430;18.926;2022-12-18T07:03:39;73.53;;;38.47;;
39486;SDS011;25173;50.430;18.926;2022-12-18T07:06:40;149.07;;;62.25;;
39486;SDS011;25173;50.430;18.926;2022-12-18T07:09:41;69.78;;;38.38;;
39486;SDS011;25173;50.430;18.926;2022-12-18T07:12:42;107.68;;;52.65;;
39486;SDS011;25173;50.430;18.926;2022-12-18T07:15:43;110.20;;;50.67;;
39486;SDS011;25173;50.430;18.926;2022-12-18T07:18:44;77.63;;;39.88;;
39486;SDS011;25173;50.430;18.926;2022-12-18T07:21:45;94.35;;;41.45;;
39486;SDS011;25173;50.430;18.926;2022-12-18T07:24:46;88.55;;;38.20;;
39486;SDS011;25173;50.430;18.926;2022-12-18T07:27:49;134.25;;;51.45;;
39486;SDS011;25173;50.430;18.926;2022-12-18T07:30:50;101.45;;;45.63;;
39486;SDS011;25173;50.430;18.926;2022-12-18T07:33:50;82.70;;;39.80;;
39486;SDS011;25173;50.430;18.926;2022-12-18T07:36:52;85.72;;;40.53;;
39486;SDS011;25173;50.430;18.926;2022-12-18T07:39:52;115.63;;;50.85;;
39486;SDS011;25173;50.430;18.926;2022-12-18T07:42:53;115.50;;;56.45;;
39486;SDS011;25173;50.430;18.926;2022-12-18T07:45:54;137.95;;;74.07;;
39486;SDS011;25173;50.430;18.926;2022-12-18T07:48:54;135.50;;;79.78;;
39486;SDS011;25173;50.430;18.926;2022-12-18T07:51:55;130.25;;;71.55;;
39486;SDS011;25173;50.430;18.926;2022-12-18T07:54:57;132.35;;;67.30;;
39486;SDS011;25173;50.430;18.926;2022-12-18T07:58:00;126.45;;;69.97;;
39486;SDS011;25173;50.430;18.926;2022-12-18T08:01:03;144.15;;;76.78;;
39486;SDS011;25173;50.430;18.926;2022-12-18T08:04:07;135.70;;;70.10;;
39486;SDS011;25173;50.430;18.926;2022-12-18T08:07:08;109.35;;;56.47;;
39486;SDS011;25173;50.430;18.926;2022-12-18T08:10:09;135.93;;;72.32;;
39486;SDS011;25173;50.430;18.926;2022-12-18T08:13:10;166.98;;;86.50;;
39486;SDS011;25173;50.430;18.926;2022-12-18T08:16:11;310.67;;;149.80;;
39486;SDS011;25173;50.430;18.926;2022-12-18T08:19:11;253.93;;;122.65;;
39486;SDS011;25173;50.430;18.926;2022-12-18T08:22:12;342.08;;;153.73;;
39486;SDS011;25173;50.430;18.926;2022-12-18T08:25:13;355.98;;;165.20;;
39486;SDS011;25173;50.430;18.926;2022-12-18T08:28:14;236.45;;;114.28;;
39486;SDS011;25173;50.430;18.926;2022-12-18T08:31:16;148.25;;;80.22;;
39486;SDS011;25173;50.430;18.926;2022-12-18T08:34:17;161.40;;;88.00;;
39486;SDS011;25173;50.430;18.926;2022-12-18T08:37:18;208.30;;;114.47;;
39486;SDS011;25173;50.430;18.926;2022-12-18T08:40:18;166.02;;;87.50;;
39486;SDS011;25173;50.430;18.926;2022-12-18T08:43:19;149.57;;;76.57;;
39486;SDS011;25173;50.430;18.926;2022-12-18T08:46:39;506.88;;;234.93;;
39486;SDS011;25173;50.430;18.926;2022-12-18T08:49:42;382.98;;;194.40;;
39486;SDS011;25173;50.430;18.926;2022-12-18T08:52:43;331.35;;;163.05;;
39486;SDS011;25173;50.430;18.926;2022-12-18T08:55:43;233.02;;;115.38;;
39486;SDS011;25173;50.430;18.926;2022-12-18T08:58:44;161.73;;;82.18;;
39486;SDS011;25173;50.430;18.926;2022-12-18T09:01:45;267.20;;;135.75;;
39486;SDS011;25173;50.430;18.926;2022-12-18T09:04:47;245.82;;;126.25;;
39486;SDS011;25173;50.430;18.926;2022-12-18T09:07:48;272.95;;;138.88;;
39486;SDS011;25173;50.430;18.926;2022-12-18T09:10:49;199.85;;;103.38;;
39486;SDS011;25173;50.430;18.926;2022-12-18T09:13:50;213.38;;;104.35;;
39486;SDS011;25173;50.430;18.926;2022-12-18T09:16:52;204.90;;;107.45;;
39486;SDS011;25173;50.430;18.926;2022-12-18T09:19:53;173.73;;;94.28;;
39486;SDS011;25173;50.430;18.926;2022-12-18T09:22:53;196.27;;;107.50;;
39486;SDS011;25173;50.430;18.926;2022-12-18T09:25:58;189.70;;;101.40;;
39486;SDS011;25173;50.430;18.926;2022-12-18T09:29:00;185.07;;;96.07;;
39486;SDS011;25173;50.430;18.926;2022-12-18T09:32:00;159.57;;;87.05;;
39486;SDS011;25173;50.430;18.926;2022-12-18T09:35:01;155.20;;;82.78;;
39486;SDS011;25173;50.430;18.926;2022-12-18T09:38:02;180.70;;;92.80;;
39486;SDS011;25173;50.430;18.926;2022-12-18T09:41:22;173.02;;;90.47;;
39486;SDS011;25173;50.430;18.926;2022-12-18T09:44:36;181.80;;;98.63;;
39486;SDS011;25173;50.430;18.926;2022-12-18T09:47:41;168.73;;;93.15;;
39486;SDS011;25173;50.430;18.926;2022-12-18T09:50:45;168.93;;;89.35;;
39486;SDS011;25173;50.430;18.926;2022-12-18T09:53:50;170.20;;;88.85;;
39486;SDS011;25173;50.430;18.926;2022-12-18T09:56:54;186.07;;;98.53;;
39486;SDS011;25173;50.430;18.926;2022-12-18T09:59:56;168.38;;;93.38;;
39486;SDS011;25173;50.430;18.926;2022-12-18T10:03:13;121.75;;;65.75;;
39486;SDS011;25173;50.430;18.926;2022-12-18T10:06:16;112.00;;;59.42;;
39486;SDS011;25173;50.430;18.926;2022-12-18T10:09:42;77.45;;;40.38;;
39486;SDS011;25173;50.430;18.926;2022-12-18T10:13:15;69.20;;;39.97;;
39486;SDS011;25173;50.430;18.926;2022-12-18T10:16:47;63.30;;;32.22;;
39486;SDS011;25173;50.430;18.926;2022-12-18T10:20:43;65.13;;;34.17;;
39486;SDS011;25173;50.430;18.926;2022-12-18T10:27:06;78.50;;;40.25;;
39486;SDS011;25173;50.430;18.926;2022-12-18T10:30:15;62.85;;;33.88;;
39486;SDS011;25173;50.430;18.926;2022-12-18T10:33:22;64.55;;;34.17;;
39486;SDS011;25173;50.430;18.926;2022-12-18T10:36:24;107.90;;;54.65;;
39486;SDS011;25173;50.430;18.926;2022-12-18T10:39:25;81.47;;;45.38;;
39486;SDS011;25173;50.430;18.926;2022-12-18T10:42:26;73.15;;;40.20;;
39486;SDS011;25173;50.430;18.926;2022-12-18T10:45:27;80.93;;;42.08;;
39486;SDS011;25173;50.430;18.926;2022-12-18T10:48:28;82.45;;;42.92;;
39486;SDS011;25173;50.430;18.926;2022-12-18T10:51:31;83.85;;;41.63;;
39486;SDS011;25173;50.430;18.926;2022-12-18T10:54:35;75.30;;;42.08;;
39486;SDS011;25173;50.430;18.926;2022-12-18T10:57:39;82.05;;;42.60;;
39486;SDS011;25173;50.430;18.926;2022-12-18T11:00:41;82.68;;;43.33;;
39486;SDS011;25173;50.430;18.926;2022-12-18T11:03:43;77.65;;;41.15;;
39486;SDS011;25173;50.430;18.926;2022-12-18T11:07:06;80.47;;;42.10;;
39486;SDS011;25173;50.430;18.926;2022-12-18T11:10:15;90.97;;;42.58;;
39486;SDS011;25173;50.430;18.926;2022-12-18T11:13:21;76.65;;;39.90;;
39486;SDS011;25173;50.430;18.926;2022-12-18T11:16:24;79.18;;;43.03;;
39486;SDS011;25173;50.430;18.926;2022-12-18T11:19:38;82.28;;;43.15;;
39486;SDS011;25173;50.430;18.926;2022-12-18T11:22:41;81.85;;;44.88;;
39486;SDS011;25173;50.430;18.926;2022-12-18T11:25:41;80.25;;;44.97;;
39486;SDS011;25173;50.430;18.926;2022-12-18T11:29:07;89.30;;;46.25;;
39486;SDS011;25173;50.430;18.926;2022-12-18T11:38:55;101.05;;;55.67;;
39486;SDS011;25173;50.430;18.926;2022-12-18T11:42:17;87.75;;;47.75;;
39486;SDS011;25173;50.430;18.926;2022-12-18T11:45:29;94.15;;;51.05;;
39486;SDS011;25173;50.430;18.926;2022-12-18T11:48:48;96.75;;;48.17;;
39486;SDS011;25173;50.430;18.926;2022-12-18T11:51:58;91.13;;;47.97;;
39486;SDS011;25173;50.430;18.926;2022-12-18T11:55:28;91.18;;;46.63;;
39486;SDS011;25173;50.430;18.926;2022-12-18T12:01:55;88.43;;;47.60;;
39486;SDS011;25173;50.430;18.926;2022-12-18T12:19:06;88.18;;;46.97;;
39486;SDS011;25173;50.430;18.926;2022-12-18T12:22:21;89.55;;;48.13;;
39486;SDS011;25173;50.430;18.926;2022-12-18T12:39:17;105.05;;;52.83;;
39486;SDS011;25173;50.430;18.926;2022-12-18T12:42:32;109.78;;;56.60;;
39486;SDS011;25173;50.430;18.926;2022-12-18T12:46:03;87.63;;;47.35;;
39486;SDS011;25173;50.430;18.926;2022-12-18T12:49:12;85.22;;;44.92;;
39486;SDS011;25173;50.430;18.926;2022-12-18T12:52:39;117.43;;;53.72;;
39486;SDS011;25173;50.430;18.926;2022-12-18T12:55:43;106.55;;;54.97;;
39486;SDS011;25173;50.430;18.926;2022-12-18T12:58:46;109.75;;;54.65;;
39486;SDS011;25173;50.430;18.926;2022-12-18T13:02:02;104.45;;;54.85;;
39486;SDS011;25173;50.430;18.926;2022-12-18T13:08:50;107.90;;;56.08;;
39486;SDS011;25173;50.430;18.926;2022-12-18T13:11:54;89.88;;;47.60;;
39486;SDS011;25173;50.430;18.926;2022-12-18T13:15:27;86.18;;;47.65;;
39486;SDS011;25173;50.430;18.926;2022-12-18T13:18:31;107.30;;;52.40;;
39486;SDS011;25173;50.430;18.926;2022-12-18T13:21:34;107.20;;;57.38;;
39486;SDS011;25173;50.430;18.926;2022-12-18T13:24:35;106.82;;;55.42;;
39486;SDS011;25173;50.430;18.926;2022-12-18T13:30:47;100.53;;;54.05;;
39486;SDS011;25173;50.430;18.926;2022-12-18T13:33:48;104.93;;;53.05;;
39486;SDS011;25173;50.430;18.926;2022-12-18T13:36:49;89.93;;;49.05;;
39486;SDS011;25173;50.430;18.926;2022-12-18T13:39:50;99.85;;;54.33;;
39486;SDS011;25173;50.430;18.926;2022-12-18T13:42:50;106.88;;;57.75;;
39486;SDS011;25173;50.430;18.926;2022-12-18T13:52:34;99.32;;;50.08;;
39486;SDS011;25173;50.430;18.926;2022-12-18T13:55:39;91.15;;;50.97;;
39486;SDS011;25173;50.430;18.926;2022-12-18T14:01:47;103.55;;;53.50;;
39486;SDS011;25173;50.430;18.926;2022-12-18T14:04:50;84.47;;;45.95;;
39486;SDS011;25173;50.430;18.926;2022-12-18T14:07:52;89.53;;;47.65;;
39486;SDS011;25173;50.430;18.926;2022-12-18T14:10:54;86.50;;;47.50;;
39486;SDS011;25173;50.430;18.926;2022-12-18T14:13:55;93.38;;;49.05;;
39486;SDS011;25173;50.430;18.926;2022-12-18T14:16:57;91.15;;;46.85;;
39486;SDS011;25173;50.430;18.926;2022-12-18T14:19:57;83.53;;;47.05;;
39486;SDS011;25173;50.430;18.926;2022-12-18T14:22:58;89.55;;;46.88;;
39486;SDS011;25173;50.430;18.926;2022-12-18T14:26:01;84.65;;;45.42;;
39486;SDS011;25173;50.430;18.926;2022-12-18T14:32:23;90.22;;;46.92;;
39486;SDS011;25173;50.430;18.926;2022-12-18T14:35:24;88.45;;;49.13;;
39486;SDS011;25173;50.430;18.926;2022-12-18T14:41:38;102.28;;;54.75;;
39486;SDS011;25173;50.430;18.926;2022-12-18T14:44:39;117.32;;;62.25;;
39486;SDS011;25173;50.430;18.926;2022-12-18T14:47:42;106.43;;;58.65;;
39486;SDS011;25173;50.430;18.926;2022-12-18T14:50:43;108.90;;;57.08;;
39486;SDS011;25173;50.430;18.926;2022-12-18T14:53:52;117.53;;;62.65;;
39486;SDS011;25173;50.430;18.926;2022-12-18T15:00:16;196.35;;;97.53;;
39486;SDS011;25173;50.430;18.926;2022-12-18T15:03:19;731.67;;;370.42;;
39486;SDS011;25173;50.430;18.926;2022-12-18T15:06:26;436.23;;;211.43;;
39486;SDS011;25173;50.430;18.926;2022-12-18T15:09:38;285.33;;;139.68;;
39486;SDS011;25173;50.430;18.926;2022-12-18T15:13:05;485.80;;;227.75;;
39486;SDS011;25173;50.430;18.926;2022-12-18T15:16:08;320.60;;;155.20;;
39486;SDS011;25173;50.430;18.926;2022-12-18T15:19:12;281.20;;;139.05;;
39486;SDS011;25173;50.430;18.926;2022-12-18T15:25:30;332.77;;;165.63;;
39486;SDS011;25173;50.430;18.926;2022-12-18T15:28:35;549.63;;;290.55;;
39486;SDS011;25173;50.430;18.926;2022-12-18T15:31:36;350.20;;;181.45;;
39486;SDS011;25173;50.430;18.926;2022-12-18T15:34:38;545.00;;;293.23;;
39486;SDS011;25173;50.430;18.926;2022-12-18T15:37:38;565.58;;;301.73;;
39486;SDS011;25173;50.430;18.926;2022-12-18T15:40:39;561.42;;;304.08;;
39486;SDS011;25173;50.430;18.926;2022-12-18T15:43:40;637.50;;;373.20;;
39486;SDS011;25173;50.430;18.926;2022-12-18T15:46:41;599.97;;;342.23;;
39486;SDS011;25173;50.430;18.926;2022-12-18T15:49:43;553.75;;;305.15;;
39486;SDS011;25173;50.430;18.926;2022-12-18T15:52:44;647.65;;;377.52;;
39486;SDS011;25173;50.430;18.926;2022-12-18T15:55:46;573.78;;;318.70;;
39486;SDS011;25173;50.430;18.926;2022-12-18T15:59:19;739.55;;;407.33;;
39486;SDS011;25173;50.430;18.926;2022-12-18T16:02:20;704.25;;;390.77;;
39486;SDS011;25173;50.430;18.926;2022-12-18T16:05:22;658.75;;;361.92;;
39486;SDS011;25173;50.430;18.926;2022-12-18T16:08:24;608.28;;;323.23;;
39486;SDS011;25173;50.430;18.926;2022-12-18T16:11:26;597.35;;;342.83;;
39486;SDS011;25173;50.430;18.926;2022-12-18T16:14:41;617.65;;;361.80;;
39486;SDS011;25173;50.430;18.926;2022-12-18T16:17:45;710.42;;;428.40;;
39486;SDS011;25173;50.430;18.926;2022-12-18T16:20:47;727.72;;;434.77;;
39486;SDS011;25173;50.430;18.926;2022-12-18T16:23:48;746.13;;;446.80;;
39486;SDS011;25173;50.430;18.926;2022-12-18T16:26:49;826.65;;;497.05;;
39486;SDS011;25173;50.430;18.926;2022-12-18T16:29:51;954.80;;;580.58;;
39486;SDS011;25173;50.430;18.926;2022-12-18T16:32:53;950.58;;;574.25;;
39486;SDS011;25173;50.430;18.926;2022-12-18T16:35:55;1075.45;;;645.53;;
39486;SDS011;25173;50.430;18.926;2022-12-18T16:38:57;1073.57;;;643.38;;
39486;SDS011;25173;50.430;18.926;2022-12-18T16:41:57;1109.70;;;637.40;;
39486;SDS011;25173;50.430;18.926;2022-12-18T16:44:58;917.97;;;537.17;;
39486;SDS011;25173;50.430;18.926;2022-12-18T16:47:59;910.80;;;535.92;;
39486;SDS011;25173;50.430;18.926;2022-12-18T16:51:02;912.83;;;525.42;;
39486;SDS011;25173;50.430;18.926;2022-12-18T16:54:04;848.92;;;490.83;;
39486;SDS011;25173;50.430;18.926;2022-12-18T16:57:05;732.20;;;414.63;;
39486;SDS011;25173;50.430;18.926;2022-12-18T17:00:06;826.22;;;476.35;;
39486;SDS011;25173;50.430;18.926;2022-12-18T17:03:07;755.47;;;436.42;;
39486;SDS011;25173;50.430;18.926;2022-12-18T17:06:08;720.80;;;402.45;;
39486;SDS011;25173;50.430;18.926;2022-12-18T17:09:13;761.40;;;435.98;;
39486;SDS011;25173;50.430;18.926;2022-12-18T17:12:15;698.05;;;395.27;;
39486;SDS011;25173;50.430;18.926;2022-12-18T17:15:16;674.90;;;381.10;;
39486;SDS011;25173;50.430;18.926;2022-12-18T17:18:17;648.45;;;363.92;;
39486;SDS011;25173;50.430;18.926;2022-12-18T17:21:17;616.28;;;326.10;;
39486;SDS011;25173;50.430;18.926;2022-12-18T17:24:19;668.90;;;374.08;;
39486;SDS011;25173;50.430;18.926;2022-12-18T17:27:20;625.92;;;351.75;;
39486;SDS011;25173;50.430;18.926;2022-12-18T17:30:21;604.75;;;334.92;;
39486;SDS011;25173;50.430;18.926;2022-12-18T17:33:21;550.42;;;300.42;;
39486;SDS011;25173;50.430;18.926;2022-12-18T17:36:24;477.73;;;256.25;;
39486;SDS011;25173;50.430;18.926;2022-12-18T17:39:28;474.73;;;255.73;;
39486;SDS011;25173;50.430;18.926;2022-12-18T17:42:29;459.27;;;255.75;;
39486;SDS011;25173;50.430;18.926;2022-12-18T17:45:30;504.92;;;275.63;;
39486;SDS011;25173;50.430;18.926;2022-12-18T17:48:31;467.92;;;263.92;;
39486;SDS011;25173;50.430;18.926;2022-12-18T17:51:32;514.22;;;289.73;;
39486;SDS011;25173;50.430;18.926;2022-12-18T17:54:33;560.30;;;317.30;;
39486;SDS011;25173;50.430;18.926;2022-12-18T17:57:37;752.05;;;429.60;;
39486;SDS011;25173;50.430;18.926;2022-12-18T18:00:38;717.83;;;415.85;;
39486;SDS011;25173;50.430;18.926;2022-12-18T18:03:38;620.08;;;349.55;;
39486;SDS011;25173;50.430;18.926;2022-12-18T18:06:40;530.63;;;297.40;;
39486;SDS011;25173;50.430;18.926;2022-12-18T18:09:41;758.53;;;428.10;;
39486;SDS011;25173;50.430;18.926;2022-12-18T18:12:41;672.38;;;374.65;;
39486;SDS011;25173;50.430;18.926;2022-12-18T18:16:01;589.22;;;339.73;;
39486;SDS011;25173;50.430;18.926;2022-12-18T18:19:03;752.78;;;433.73;;
39486;SDS011;25173;50.430;18.926;2022-12-18T18:22:06;607.33;;;333.25;;
39486;SDS011;25173;50.430;18.926;2022-12-18T18:25:07;536.55;;;301.20;;
39486;SDS011;25173;50.430;18.926;2022-12-18T18:28:08;572.50;;;318.27;;
39486;SDS011;25173;50.430;18.926;2022-12-18T18:31:09;619.80;;;343.63;;
39486;SDS011;25173;50.430;18.926;2022-12-18T18:34:14;506.80;;;280.98;;
39486;SDS011;25173;50.430;18.926;2022-12-18T18:37:16;490.23;;;272.42;;
39486;SDS011;25173;50.430;18.926;2022-12-18T18:40:17;573.35;;;316.88;;
39486;SDS011;25173;50.430;18.926;2022-12-18T18:43:19;562.03;;;312.20;;
39486;SDS011;25173;50.430;18.926;2022-12-18T18:46:19;433.83;;;245.30;;
39486;SDS011;25173;50.430;18.926;2022-12-18T18:49:20;487.58;;;261.33;;
39486;SDS011;25173;50.430;18.926;2022-12-18T18:52:21;438.27;;;239.40;;
39486;SDS011;25173;50.430;18.926;2022-12-18T18:55:22;645.22;;;356.08;;
39486;SDS011;25173;50.430;18.926;2022-12-18T18:58:22;506.08;;;260.73;;
39486;SDS011;25173;50.430;18.926;2022-12-18T19:01:24;610.47;;;291.27;;
39486;SDS011;25173;50.430;18.926;2022-12-18T19:04:26;579.38;;;283.35;;
39486;SDS011;25173;50.430;18.926;2022-12-18T19:07:26;465.85;;;231.27;;
39486;SDS011;25173;50.430;18.926;2022-12-18T19:10:27;418.52;;;211.15;;